Time;durP1;ratioP1;P1;durP2;ratioP2;P2;SDS_P1;SDS_P2;PMS_P1;PMS_P2;Temp;Humidity;BMP_temperature;BMP_pressure;BME280_temperature;BME280_humidity;BME280_pressure;Samples;Min_cycle;Max_cycle;Signal;HPM_P1;HPM_P2
2023/08/22 00:01:00;;;;;;;0.50;0.50;;;17.20;99.90;;;;;;5034413;28;20022;-68
2023/08/22 00:03:26;;;;;;;0.23;0.23;;;17.20;99.90;;;;;;5024661;28;20444;-68
2023/08/22 00:05:51;;;;;;;1.93;0.40;;;17.20;99.90;;;;;;5025577;28;20056;-68
2023/08/22 00:08:17;;;;;;;1.03;1.03;;;17.20;99.90;;;;;;5030524;28;20026;-68
2023/08/22 00:10:45;;;;;;;0.00;0.00;;;17.20;99.90;;;;;;5034315;28;20032;-68
2023/08/22 00:13:11;;;;;;;0.45;0.45;;;17.30;99.90;;;;;;5031056;28;20025;-68
2023/08/22 00:15:37;;;;;;;0.10;0.10;;;17.30;99.90;;;;;;5030493;28;20036;-76
2023/08/22 00:18:03;;;;;;;0.67;0.67;;;17.30;99.90;;;;;;5031324;28;20305;-68
2023/08/22 00:20:28;;;;;;;0.45;0.45;;;17.30;99.90;;;;;;5032709;28;20033;-68
2023/08/22 00:22:54;;;;;;;0.00;0.00;;;17.30;99.90;;;;;;5034018;28;20033;-68
2023/08/22 00:25:20;;;;;;;0.47;0.47;;;17.30;99.90;;;;;;5034058;28;20324;-68
2023/08/22 00:27:46;;;;;;;0.10;0.10;;;17.30;99.90;;;;;;5034898;28;20025;-68
2023/08/22 00:30:12;;;;;;;;;;;17.30;99.90;;;;;;5028973;28;20031;-68
2023/08/22 00:32:38;;;;;;;0.13;0.13;;;17.40;99.90;;;;;;5030228;28;19908;-77
2023/08/22 00:35:04;;;;;;;0.53;0.53;;;17.40;99.90;;;;;;5034664;28;20071;-69
2023/08/22 00:37:30;;;;;;;0.35;0.35;;;17.30;99.90;;;;;;5034216;28;20351;-68
2023/08/22 00:39:56;;;;;;;0.27;0.27;;;17.30;99.90;;;;;;5034570;28;20109;-68
2023/08/22 00:42:22;;;;;;;0.05;0.05;;;17.20;99.90;;;;;;5034342;28;20021;-69
2023/08/22 00:44:47;;;;;;;0.20;0.20;;;17.20;99.90;;;;;;5034219;28;20040;-68
2023/08/22 00:47:16;;;;;;;0.30;0.30;;;17.20;99.90;;;;;;5046157;28;20057;-69
2023/08/22 00:49:41;;;;;;;0.17;0.17;;;17.10;99.90;;;;;;5050007;28;20029;-68
2023/08/22 00:52:08;;;;;;;0.80;0.20;;;17.00;99.90;;;;;;5032373;28;20029;-68
2023/08/22 00:54:34;;;;;;;0.38;0.38;;;17.00;99.90;;;;;;5030742;28;20038;-68
2023/08/22 00:57:00;;;;;;;;;;;17.00;99.90;;;;;;5027267;28;20057;-68
2023/08/22 00:59:27;;;;;;;1.27;0.85;;;16.90;99.90;;;;;;5030243;28;20273;-68
2023/08/22 01:01:53;;;;;;;;;;;16.90;99.90;;;;;;5031977;28;20112;-69
2023/08/22 01:04:19;;;;;;;0.10;0.10;;;16.90;99.90;;;;;;5033044;28;19913;-68
2023/08/22 01:06:49;;;;;;;0.55;0.52;;;16.80;99.90;;;;;;5032050;28;20033;-68
2023/08/22 01:09:28;;;;;;;0.43;0.43;;;16.90;99.90;;;;;;5022495;28;20528;-68
2023/08/22 01:12:03;;;;;;;0.35;0.35;;;16.90;99.90;;;;;;5026631;28;20026;-68
2023/08/22 01:14:32;;;;;;;0.45;0.45;;;16.80;99.90;;;;;;5033646;28;20021;-68
2023/08/22 01:16:59;;;;;;;0.00;0.00;;;16.80;99.90;;;;;;5032759;28;20034;-68
2023/08/22 01:19:25;;;;;;;0.20;0.20;;;16.80;99.90;;;;;;5032549;28;20022;-68
2023/08/22 01:21:52;;;;;;;0.65;0.65;;;16.80;99.90;;;;;;5031230;28;20124;-72
2023/08/22 01:24:18;;;;;;;0.00;0.00;;;16.80;99.90;;;;;;5020758;28;20030;-68
2023/08/22 01:26:47;;;;;;;0.63;0.52;;;16.80;99.90;;;;;;5029460;28;20474;-68
2023/08/22 01:29:39;;;;;;;0.73;0.60;;;16.70;99.90;;;;;;5028040;28;20056;-68
2023/08/22 01:32:36;;;;;;;0.10;0.10;;;16.70;99.90;;;;;;5024111;28;20026;-68
2023/08/22 01:35:05;;;;;;;0.10;0.10;;;16.70;99.90;;;;;;5029766;28;20045;-68
2023/08/22 01:37:32;;;;;;;1.30;0.57;;;16.70;99.90;;;;;;5029392;28;20092;-68
2023/08/22 01:40:01;;;;;;;0.60;0.60;;;16.80;99.90;;;;;;5026347;28;20029;-75
2023/08/22 01:42:27;;;;;;;2.63;1.05;;;16.80;99.90;;;;;;5028041;28;20358;-68
2023/08/22 01:44:53;;;;;;;0.55;0.55;;;16.90;99.90;;;;;;5026966;28;20117;-68
2023/08/22 01:47:19;;;;;;;0.40;0.40;;;16.90;99.90;;;;;;5032676;28;20109;-68
2023/08/22 01:49:45;;;;;;;0.30;0.30;;;16.90;99.90;;;;;;5031769;28;20018;-68
2023/08/22 01:52:11;;;;;;;3.92;0.77;;;16.90;99.90;;;;;;5030387;28;20033;-68
2023/08/22 01:54:37;;;;;;;1.33;0.57;;;16.90;99.90;;;;;;5033426;28;20045;-68
2023/08/22 01:57:03;;;;;;;;;;;16.90;99.90;;;;;;5030635;28;20431;-69
2023/08/22 01:59:29;;;;;;;0.30;0.30;;;16.90;99.90;;;;;;5033530;28;19909;-68
2023/08/22 02:01:55;;;;;;;0.00;0.00;;;16.90;99.90;;;;;;5033860;28;20274;-68
2023/08/22 02:04:21;;;;;;;0.20;0.20;;;16.80;99.90;;;;;;5033350;28;20274;-68
2023/08/22 02:06:47;;;;;;;0.13;0.13;;;16.70;99.90;;;;;;5031579;28;20044;-68
2023/08/22 02:09:15;;;;;;;0.17;0.17;;;16.60;99.90;;;;;;5029680;28;20026;-68
2023/08/22 02:11:41;;;;;;;0.28;0.28;;;16.60;99.90;;;;;;5029592;28;20179;-68
2023/08/22 02:14:07;;;;;;;2.23;0.63;;;16.50;99.90;;;;;;5028698;28;20112;-76
2023/08/22 02:16:35;;;;;;;0.20;0.20;;;16.50;99.90;;;;;;5025544;28;20038;-68
2023/08/22 02:19:01;;;;;;;0.17;0.17;;;16.50;99.90;;;;;;5027050;28;20048;-68
2023/08/22 02:21:26;;;;;;;0.00;0.00;;;16.50;99.90;;;;;;5030718;28;20324;-76
2023/08/22 02:23:52;;;;;;;2.43;1.03;;;16.50;99.90;;;;;;5018721;28;20666;-68
2023/08/22 02:26:18;;;;;;;0.10;0.10;;;16.50;99.90;;;;;;5022327;28;20486;-68
2023/08/22 02:28:44;;;;;;;0.50;0.50;;;16.40;99.90;;;;;;5032468;28;20475;-68
2023/08/22 02:31:10;;;;;;;0.87;0.87;;;16.50;99.90;;;;;;5033059;28;20324;-75
2023/08/22 02:33:35;;;;;;;0.10;0.10;;;16.40;99.90;;;;;;5033345;28;20061;-68
2023/08/22 02:36:01;;;;;;;0.10;0.10;;;16.40;99.90;;;;;;5032116;28;20450;-68
2023/08/22 02:38:27;;;;;;;0.13;0.13;;;16.40;99.90;;;;;;5037479;28;20294;-68
2023/08/22 02:40:53;;;;;;;0.20;0.20;;;16.40;99.90;;;;;;5036300;28;20037;-68
2023/08/22 02:43:18;;;;;;;0.10;0.10;;;16.40;99.90;;;;;;5036618;28;20444;-68
2023/08/22 02:45:45;;;;;;;0.60;0.23;;;16.40;99.90;;;;;;5036508;28;20416;-68
2023/08/22 02:48:11;;;;;;;;;;;16.50;99.90;;;;;;5036716;28;20026;-70
2023/08/22 02:50:37;;;;;;;0.20;0.20;;;16.60;99.90;;;;;;5036716;28;19999;-68
2023/08/22 02:53:03;;;;;;;0.07;0.07;;;16.60;99.90;;;;;;5028581;28;20033;-68
2023/08/22 02:55:29;;;;;;;0.05;0.05;;;16.70;99.90;;;;;;5030352;28;20344;-68
2023/08/22 02:57:55;;;;;;;0.38;0.38;;;16.60;99.90;;;;;;5036097;28;20045;-68
2023/08/22 03:00:21;;;;;;;0.00;0.00;;;16.70;99.90;;;;;;5032405;28;20423;-68
2023/08/22 03:02:47;;;;;;;0.10;0.10;;;16.70;99.90;;;;;;5032540;28;20030;-68
2023/08/22 03:05:12;;;;;;;0.00;0.00;;;16.60;99.90;;;;;;5035246;28;20040;-74
2023/08/22 03:07:39;;;;;;;0.50;0.50;;;16.60;99.90;;;;;;5035711;28;20030;-68
2023/08/22 03:10:05;;;;;;;1.08;0.98;;;16.70;99.90;;;;;;5032533;28;20332;-67
2023/08/22 03:12:31;;;;;;;0.47;0.47;;;16.70;99.90;;;;;;5031312;28;20021;-68
2023/08/22 03:14:57;;;;;;;2.20;1.17;;;16.80;99.90;;;;;;5031838;28;20352;-68
2023/08/22 03:17:22;;;;;;;4.57;1.53;;;16.80;99.90;;;;;;5028176;28;20080;-68
2023/08/22 03:19:48;;;;;;;0.90;0.83;;;16.80;99.90;;;;;;5034660;28;20055;-68
2023/08/22 03:22:14;;;;;;;0.17;0.17;;;16.70;99.90;;;;;;5030986;28;20420;-68
2023/08/22 03:24:39;;;;;;;2.77;0.50;;;16.70;99.90;;;;;;5030731;28;20025;-68
2023/08/22 03:27:05;;;;;;;0.00;0.00;;;16.70;99.90;;;;;;5031138;28;20373;-68
2023/08/22 03:29:31;;;;;;;0.20;0.20;;;16.70;99.90;;;;;;5035267;28;20029;-68
2023/08/22 03:31:58;;;;;;;0.20;0.20;;;16.70;99.90;;;;;;5033665;28;20022;-76
2023/08/22 03:34:24;;;;;;;0.30;0.30;;;16.70;99.90;;;;;;5030230;28;20049;-68
2023/08/22 03:36:50;;;;;;;2.10;1.10;;;16.70;99.90;;;;;;5019624;28;20049;-68
2023/08/22 03:39:15;;;;;;;0.47;0.47;;;16.70;99.90;;;;;;5028885;28;20025;-68
2023/08/22 03:41:41;;;;;;;0.80;0.80;;;16.70;99.90;;;;;;5030725;28;20355;-68
2023/08/22 03:44:07;;;;;;;0.40;0.40;;;16.70;99.90;;;;;;5027471;28;20032;-68
2023/08/22 03:46:32;;;;;;;0.63;0.43;;;16.70;99.90;;;;;;5032677;28;20049;-68
2023/08/22 03:48:58;;;;;;;0.43;0.43;;;16.60;99.90;;;;;;5033949;28;20383;-75
2023/08/22 03:51:24;;;;;;;0.00;0.00;;;16.60;99.90;;;;;;5031975;28;20025;-68
2023/08/22 03:53:50;;;;;;;1.17;1.00;;;16.60;99.90;;;;;;5029177;28;20037;-68
2023/08/22 03:56:16;;;;;;;0.10;0.10;;;16.60;99.90;;;;;;5030697;28;20038;-68
2023/08/22 03:58:41;;;;;;;0.60;0.57;;;16.60;99.90;;;;;;5033540;28;20034;-68
2023/08/22 04:01:07;;;;;;;0.40;0.40;;;16.70;99.90;;;;;;5048106;28;20034;-68
2023/08/22 04:03:33;;;;;;;0.20;0.20;;;16.60;99.90;;;;;;5050977;28;20034;-68
2023/08/22 04:05:59;;;;;;;0.52;0.35;;;16.60;99.90;;;;;;5030471;28;20054;-68
2023/08/22 04:08:25;;;;;;;0.80;0.80;;;16.60;99.90;;;;;;5033615;28;20033;-68
2023/08/22 04:10:52;;;;;;;0.40;0.40;;;16.50;99.90;;;;;;5030564;28;20042;-68
2023/08/22 04:13:18;;;;;;;0.10;0.10;;;16.50;99.90;;;;;;5034716;28;20029;-68
2023/08/22 04:15:44;;;;;;;2.40;0.93;;;16.50;99.90;;;;;;5030276;28;20439;-68
2023/08/22 04:18:09;;;;;;;0.43;0.40;;;16.40;99.90;;;;;;5030907;28;20025;-68
2023/08/22 04:20:35;;;;;;;0.20;0.20;;;16.40;99.90;;;;;;5033597;28;20033;-68
2023/08/22 04:23:01;;;;;;;0.27;0.20;;;16.40;99.90;;;;;;5046285;28;20038;-68
2023/08/22 04:25:26;;;;;;;0.30;0.30;;;16.40;99.90;;;;;;5033213;28;20336;-68
2023/08/22 04:27:52;;;;;;;0.10;0.10;;;16.40;99.90;;;;;;5035201;28;20072;-68
2023/08/22 04:30:18;;;;;;;1.37;1.27;;;16.30;99.90;;;;;;5034688;28;20434;-68
2023/08/22 04:32:44;;;;;;;0.20;0.20;;;16.30;99.90;;;;;;5034228;28;20032;-68
2023/08/22 04:35:10;;;;;;;0.20;0.20;;;16.30;99.90;;;;;;5033220;28;20025;-67
2023/08/22 04:37:35;;;;;;;0.40;0.40;;;16.30;99.90;;;;;;5027873;28;20324;-68
2023/08/22 04:40:03;;;;;;;0.30;0.30;;;16.30;99.90;;;;;;5050842;28;20033;-68
2023/08/22 04:42:29;;;;;;;0.30;0.30;;;16.30;99.90;;;;;;5034088;28;20022;-76
2023/08/22 04:44:54;;;;;;;0.30;0.30;;;16.30;99.90;;;;;;5028814;28;20029;-68
2023/08/22 04:47:20;;;;;;;0.57;0.57;;;16.30;99.90;;;;;;5032442;28;20132;-68
2023/08/22 04:49:46;;;;;;;2.80;0.63;;;16.30;99.90;;;;;;5029709;28;20032;-68
2023/08/22 04:52:12;;;;;;;0.25;0.25;;;16.30;99.90;;;;;;5032846;28;20026;-68
2023/08/22 04:54:38;;;;;;;1.33;0.70;;;16.30;99.90;;;;;;5031502;28;20075;-67
2023/08/22 04:57:03;;;;;;;3.47;2.07;;;16.30;99.90;;;;;;5029383;28;20371;-68
2023/08/22 04:59:29;;;;;;;0.10;0.10;;;16.40;99.90;;;;;;5031308;28;20022;-75
2023/08/22 05:01:55;;;;;;;0.40;0.40;;;16.40;99.90;;;;;;5033652;28;20063;-68
2023/08/22 05:04:21;;;;;;;0.20;0.20;;;16.40;99.90;;;;;;5026443;28;20048;-67
2023/08/22 05:06:47;;;;;;;0.93;0.60;;;16.40;99.90;;;;;;5054482;28;20018;-68
2023/08/22 05:09:14;;;;;;;0.20;0.20;;;16.50;99.90;;;;;;5028346;28;20491;-68
2023/08/22 05:11:40;;;;;;;;;;;16.60;99.90;;;;;;5037937;28;20029;-68
2023/08/22 05:14:06;;;;;;;0.68;0.65;;;16.60;99.90;;;;;;5048185;28;19963;-68
2023/08/22 05:16:34;;;;;;;0.30;0.30;;;16.60;99.90;;;;;;5031697;28;20108;-75
2023/08/22 05:18:59;;;;;;;4.40;0.65;;;16.70;99.90;;;;;;5036960;28;20185;-68
2023/08/22 05:21:25;;;;;;;1.87;0.70;;;16.70;99.90;;;;;;5029643;28;20137;-67
2023/08/22 05:23:51;;;;;;;0.50;0.50;;;16.80;99.90;;;;;;5033071;28;20058;-68
2023/08/22 05:26:17;;;;;;;1.70;0.93;;;16.80;99.90;;;;;;5034595;28;20030;-68
2023/08/22 05:28:43;;;;;;;0.73;0.65;;;16.80;99.90;;;;;;5033273;28;20032;-68
2023/08/22 05:31:08;;;;;;;0.50;0.50;;;16.80;99.90;;;;;;5033786;28;20029;-68
2023/08/22 05:33:34;;;;;;;3.87;1.03;;;16.80;99.90;;;;;;5022425;28;20336;-68
2023/08/22 05:36:00;;;;;;;0.40;0.40;;;16.90;99.90;;;;;;5028670;28;20030;-68
2023/08/22 05:38:26;;;;;;;0.50;0.50;;;16.90;99.90;;;;;;5031208;28;20124;-68
2023/08/22 05:40:51;;;;;;;0.33;0.33;;;16.90;99.90;;;;;;5033646;28;20030;-68
2023/08/22 05:43:17;;;;;;;0.80;0.80;;;16.90;99.90;;;;;;5033746;28;20559;-75
2023/08/22 05:45:43;;;;;;;0.65;0.65;;;16.90;99.90;;;;;;5032348;28;20054;-69
2023/08/22 05:48:09;;;;;;;3.63;1.87;;;17.00;99.90;;;;;;5048511;28;20052;-68
2023/08/22 05:50:35;;;;;;;0.53;0.53;;;17.00;99.90;;;;;;5033792;28;20274;-68
2023/08/22 05:53:00;;;;;;;0.53;0.50;;;17.00;99.90;;;;;;5028715;28;20025;-68
2023/08/22 05:55:26;;;;;;;3.33;0.77;;;17.10;99.90;;;;;;5033951;28;20025;-68
2023/08/22 05:57:52;;;;;;;5.97;1.00;;;17.10;99.90;;;;;;5033073;28;20064;-68
2023/08/22 06:00:18;;;;;;;2.33;1.33;;;17.10;99.90;;;;;;5033880;28;20321;-68
2023/08/22 06:02:44;;;;;;;1.30;0.93;;;17.20;99.90;;;;;;5033640;28;20033;-68
2023/08/22 06:05:09;;;;;;;0.40;0.40;;;17.30;99.90;;;;;;5033494;28;20332;-76
2023/08/22 06:07:35;;;;;;;0.73;0.40;;;17.40;99.90;;;;;;5033450;28;20025;-69
2023/08/22 06:10:02;;;;;;;0.40;0.40;;;17.40;99.90;;;;;;5030520;28;20022;-77
2023/08/22 06:12:28;;;;;;;0.45;0.45;;;17.50;99.90;;;;;;5031788;28;20013;-68
2023/08/22 06:14:53;;;;;;;2.40;0.47;;;17.60;99.90;;;;;;5034969;28;20040;-68
2023/08/22 06:17:19;;;;;;;0.67;0.63;;;17.60;99.90;;;;;;5035226;28;20341;-68
2023/08/22 06:19:52;;;;;;;0.67;0.67;;;17.60;99.90;;;;;;5028199;28;20091;-69
2023/08/22 06:22:17;;;;;;;1.65;1.00;;;17.60;99.90;;;;;;5031629;28;20431;-69
2023/08/22 06:24:43;;;;;;;0.23;0.23;;;17.60;99.90;;;;;;5037239;28;20022;-68
2023/08/22 06:27:09;;;;;;;2.40;1.17;;;17.60;99.90;;;;;;5036120;28;20109;-76
2023/08/22 06:29:34;;;;;;;0.37;0.30;;;17.60;99.90;;;;;;5033876;28;20029;-75
2023/08/22 06:32:00;;;;;;;3.53;1.33;;;17.60;99.90;;;;;;5037084;28;20106;-68
2023/08/22 06:34:26;;;;;;;0.57;0.57;;;17.70;99.90;;;;;;5036708;28;20099;-69
2023/08/22 06:36:52;;;;;;;0.75;0.75;;;17.70;99.90;;;;;;5036952;28;20100;-69
2023/08/22 06:39:18;;;;;;;8.43;1.90;;;17.70;99.90;;;;;;5033467;28;20156;-69
2023/08/22 06:41:44;;;;;;;0.70;0.70;;;17.70;99.90;;;;;;5036962;28;20255;-70
2023/08/22 06:44:10;;;;;;;1.23;1.13;;;17.80;99.90;;;;;;5035326;28;20091;-76
2023/08/22 06:46:37;;;;;;;1.40;0.43;;;17.80;99.90;;;;;;5034809;28;20298;-69
2023/08/22 06:49:03;;;;;;;0.75;0.68;;;17.90;99.90;;;;;;5036022;28;20030;-69
2023/08/22 06:51:29;;;;;;;0.45;0.45;;;17.90;99.90;;;;;;5036677;28;20026;-69
2023/08/22 06:53:55;;;;;;;0.68;0.68;;;18.00;99.90;;;;;;5036300;28;20115;-70
2023/08/22 06:56:21;;;;;;;0.20;0.20;;;18.00;99.90;;;;;;5035395;28;20033;-68
2023/08/22 06:58:47;;;;;;;16.03;2.97;;;18.10;99.90;;;;;;5036919;28;20032;-69
2023/08/22 07:01:14;;;;;;;0.57;0.57;;;18.20;99.90;;;;;;5038522;28;20273;-78
2023/08/22 07:03:41;;;;;;;156.18;43.55;;;18.30;99.90;;;;;;5035785;28;20037;-69
2023/08/22 07:06:07;;;;;;;12.55;6.25;;;18.40;99.90;;;;;;5035399;28;20026;-77
2023/08/22 07:08:34;;;;;;;3.03;2.80;;;18.50;99.90;;;;;;5034757;28;20024;-70
2023/08/22 07:11:03;;;;;;;20.00;8.88;;;18.60;99.90;;;;;;5034292;28;20114;-78
2023/08/22 07:13:30;;;;;;;5.90;3.38;;;18.70;99.90;;;;;;5031579;28;20022;-69
2023/08/22 07:15:56;;;;;;;5.90;3.40;;;18.90;99.90;;;;;;5037048;28;20120;-70
2023/08/22 07:18:22;;;;;;;1.20;0.47;;;19.10;99.90;;;;;;5035380;28;20108;-70
2023/08/22 07:20:51;;;;;;;6.70;4.15;;;19.20;99.90;;;;;;5033960;28;20079;-77
2023/08/22 07:23:18;;;;;;;23.67;3.10;;;19.40;99.90;;;;;;5035055;28;20124;-68
2023/08/22 07:25:51;;;;;;;0.40;0.40;;;19.60;99.90;;;;;;5029913;28;20029;-74
2023/08/22 07:28:17;;;;;;;6.82;1.85;;;19.80;99.90;;;;;;5036919;28;20029;-69
2023/08/22 07:30:46;;;;;;;1.13;1.02;;;20.00;99.90;;;;;;5035150;28;20026;-70
2023/08/22 07:33:15;;;;;;;2.20;1.33;;;20.20;99.90;;;;;;5035199;28;20037;-68
2023/08/22 07:35:43;;;;;;;0.47;0.47;;;20.20;99.90;;;;;;5038003;28;20033;-69
2023/08/22 07:38:09;;;;;;;12.05;1.98;;;20.20;99.90;;;;;;5052862;28;20082;-70
2023/08/22 07:40:40;;;;;;;0.38;0.38;;;20.30;99.90;;;;;;5042552;28;20030;-69
2023/08/22 07:43:06;;;;;;;0.50;0.50;;;20.40;99.90;;;;;;5050494;28;20037;-70
2023/08/22 07:45:32;;;;;;;0.60;0.60;;;20.50;99.90;;;;;;5039495;28;20032;-69
2023/08/22 07:47:58;;;;;;;0.10;0.10;;;20.50;99.90;;;;;;5044762;28;20028;-70
2023/08/22 07:50:24;;;;;;;3.67;2.28;;;20.60;99.90;;;;;;5052180;28;20025;-76
2023/08/22 07:52:50;;;;;;;0.37;0.37;;;20.60;99.90;;;;;;5044317;28;20309;-75
2023/08/22 07:55:16;;;;;;;1.15;0.75;;;20.70;99.90;;;;;;5037363;28;20112;-69
2023/08/22 07:57:41;;;;;;;0.50;0.50;;;20.80;99.90;;;;;;5032939;28;20389;-69
2023/08/22 08:00:11;;;;;;;0.30;0.30;;;20.90;99.90;;;;;;5026788;28;20702;-70
2023/08/22 08:02:40;;;;;;;1.35;1.23;;;20.90;99.90;;;;;;5028914;28;20263;-69
2023/08/22 08:05:06;;;;;;;1.48;1.05;;;21.00;99.90;;;;;;5035199;28;20029;-69
2023/08/22 08:07:34;;;;;;;1.77;0.93;;;20.90;99.90;;;;;;5033348;28;20045;-70
2023/08/22 08:10:00;;;;;;;9.73;0.65;;;21.00;99.90;;;;;;5027097;28;20364;-69
2023/08/22 08:12:26;;;;;;;0.20;0.20;;;21.10;99.90;;;;;;5032135;28;20112;-69
2023/08/22 08:14:52;;;;;;;0.90;0.90;;;21.20;99.90;;;;;;5033779;28;20032;-69
2023/08/22 08:17:18;;;;;;;1.27;0.60;;;21.30;99.90;;;;;;5028393;28;20205;-70
2023/08/22 08:19:44;;;;;;;0.45;0.45;;;21.40;99.90;;;;;;5030526;28;20040;-70
2023/08/22 08:22:13;;;;;;;0.30;0.30;;;21.50;99.90;;;;;;5032706;28;20399;-70
2023/08/22 08:24:39;;;;;;;1.48;1.33;;;21.60;99.90;;;;;;5034461;28;20030;-75
2023/08/22 08:27:05;;;;;;;0.50;0.50;;;21.60;99.90;;;;;;5030172;28;20034;-69
2023/08/22 08:29:31;;;;;;;2.40;1.02;;;21.60;99.90;;;;;;5029680;28;20037;-69
2023/08/22 08:31:57;;;;;;;1.40;1.30;;;21.60;99.90;;;;;;5038601;28;20028;-70
2023/08/22 08:34:24;;;;;;;0.85;0.85;;;21.60;99.90;;;;;;5044973;28;20026;-70
2023/08/22 08:36:50;;;;;;;1.13;1.05;;;21.60;99.90;;;;;;5036405;28;20037;-69
2023/08/22 08:39:17;;;;;;;1.05;1.05;;;21.70;99.90;;;;;;5030241;28;20029;-70
2023/08/22 08:41:54;;;;;;;0.73;0.73;;;21.70;99.90;;;;;;5037825;28;20041;-70
2023/08/22 08:44:20;;;;;;;1.70;0.88;;;21.70;99.90;;;;;;5034923;28;20036;-70
2023/08/22 08:46:47;;;;;;;0.25;0.25;;;21.70;99.90;;;;;;5036539;28;20049;-69
2023/08/22 08:49:15;;;;;;;1.20;1.10;;;21.60;99.90;;;;;;5036310;28;20524;-70
2023/08/22 08:51:42;;;;;;;0.90;0.60;;;21.60;99.90;;;;;;5033750;28;20328;-69
2023/08/22 08:54:09;;;;;;;0.95;0.93;;;21.60;99.90;;;;;;5029364;28;20157;-69
2023/08/22 08:56:35;;;;;;;0.30;0.30;;;21.60;99.90;;;;;;5024700;28;20017;-69
2023/08/22 08:59:01;;;;;;;1.50;0.87;;;21.60;99.90;;;;;;5020053;28;20045;-69
2023/08/22 09:01:27;;;;;;;3.33;1.98;;;21.70;99.90;;;;;;5027836;28;20033;-69
2023/08/22 09:03:53;;;;;;;2.13;1.48;;;21.70;99.90;;;;;;5023673;28;20109;-70
2023/08/22 09:06:20;;;;;;;2.35;2.15;;;21.90;99.90;;;;;;5031160;28;20053;-75
2023/08/22 09:09:09;;;;;;;0.43;0.43;;;22.00;99.90;;;;;;5028652;28;20343;-69
2023/08/22 09:11:35;;;;;;;0.88;0.88;;;22.20;99.90;;;;;;5032182;28;20112;-76
2023/08/22 09:14:04;;;;;;;0.70;0.68;;;22.20;99.90;;;;;;5030571;28;20109;-69
2023/08/22 09:16:30;;;;;;;0.73;0.73;;;22.30;99.90;;;;;;5048453;28;20037;-70
2023/08/22 09:19:00;;;;;;;0.68;0.68;;;22.40;99.90;;;;;;5034030;28;20041;-69
2023/08/22 09:21:26;;;;;;;1.80;0.50;;;22.40;99.90;;;;;;5033333;28;20063;-70
2023/08/22 09:23:52;;;;;;;0.30;0.30;;;22.30;99.90;;;;;;5032475;28;20076;-69
2023/08/22 09:26:21;;;;;;;;;;;22.30;99.90;;;;;;5029497;28;20060;-69
2023/08/22 09:28:48;;;;;;;0.77;0.77;;;22.40;99.90;;;;;;5023231;28;19918;-70
2023/08/22 09:31:23;;;;;;;;;;;22.40;99.90;;;;;;5023075;28;20109;-69
2023/08/22 09:33:50;;;;;;;0.77;0.70;;;22.40;99.90;;;;;;5026452;28;19917;-75
2023/08/22 09:36:20;;;;;;;3.88;1.92;;;22.50;99.90;;;;;;5032089;28;20302;-70
2023/08/22 09:38:56;;;;;;;2.83;1.40;;;22.50;99.90;;;;;;5028085;28;20037;-69
2023/08/22 09:41:24;;;;;;;0.90;0.63;;;22.50;99.90;;;;;;5023108;28;20067;-70
2023/08/22 09:43:54;;;;;;;0.90;0.90;;;22.40;99.90;;;;;;5030316;28;20111;-70
2023/08/22 09:46:21;;;;;;;0.57;0.57;;;22.30;99.90;;;;;;5029724;28;20425;-69
2023/08/22 09:48:50;;;;;;;;;;;22.40;99.90;;;;;;5026626;28;20025;-69
2023/08/22 09:51:20;;;;;;;0.30;0.30;;;22.40;99.90;;;;;;5032311;28;19925;-70
2023/08/22 09:53:53;;;;;;;0.22;0.22;;;22.50;99.90;;;;;;5035409;28;20030;-69
2023/08/22 09:56:23;;;;;;;1.23;1.13;;;22.80;99.90;;;;;;5031653;28;20030;-69
2023/08/22 09:58:49;;;;;;;0.85;0.77;;;23.00;99.90;;;;;;5047660;28;20033;-69
2023/08/22 10:01:16;;;;;;;0.85;0.80;;;23.30;99.90;;;;;;5038527;28;20371;-69
2023/08/22 10:03:47;;;;;;;1.08;1.08;;;23.60;99.90;;;;;;5043685;28;20474;-69
2023/08/22 10:06:14;;;;;;;0.57;0.57;;;23.70;99.90;;;;;;5034073;28;20063;-70
2023/08/22 10:08:45;;;;;;;0.30;0.30;;;23.80;99.90;;;;;;5038554;28;20025;-70
2023/08/22 10:11:16;;;;;;;0.40;0.40;;;23.90;99.90;;;;;;5034052;28;20247;-69
2023/08/22 10:13:43;;;;;;;0.35;0.35;;;23.80;99.90;;;;;;5045834;28;20293;-70
2023/08/22 10:16:09;;;;;;;0.38;0.38;;;23.80;99.90;;;;;;5028339;28;20041;-70
2023/08/22 10:18:36;;;;;;;0.65;0.65;;;23.80;99.90;;;;;;5034460;28;20021;-70
2023/08/22 10:21:04;;;;;;;0.47;0.47;;;23.80;99.90;;;;;;5033869;28;20412;-76
2023/08/22 10:23:51;;;;;;;0.25;0.25;;;23.80;99.90;;;;;;5040380;28;20139;-70
2023/08/22 10:26:21;;;;;;;0.73;0.50;;;23.90;99.90;;;;;;5038458;28;20030;-76
2023/08/22 10:29:16;;;;;;;2.08;0.73;;;23.90;99.90;;;;;;5033518;28;20044;-68
2023/08/22 10:32:01;;;;;;;0.27;0.27;;;24.00;99.90;;;;;;5035966;28;20424;-70
2023/08/22 10:34:38;;;;;;;0.10;0.10;;;23.80;99.90;;;;;;5035542;28;20025;-69
2023/08/22 10:37:25;;;;;;;0.73;0.73;;;23.80;99.90;;;;;;5032767;28;20026;-70
2023/08/22 10:39:52;;;;;;;0.15;0.15;;;23.70;99.90;;;;;;5035559;28;20052;-74
2023/08/22 10:42:19;;;;;;;0.43;0.38;;;23.60;99.90;;;;;;5030939;28;20029;-75
2023/08/22 10:44:48;;;;;;;;;;;23.60;99.90;;;;;;5025355;28;20026;-70
2023/08/22 10:47:22;;;;;;;0.22;0.22;;;23.50;99.90;;;;;;5035326;28;19930;-69
2023/08/22 10:49:50;;;;;;;0.00;0.00;;;23.30;99.90;;;;;;5036774;28;20100;-76
2023/08/22 10:52:16;;;;;;;0.65;0.43;;;23.30;99.90;;;;;;5028371;28;20034;-70
2023/08/22 10:55:10;;;;;;;0.25;0.25;;;23.20;99.90;;;;;;5032787;28;20416;-68
2023/08/22 10:57:47;;;;;;;0.25;0.17;;;23.10;99.90;;;;;;5026777;28;20084;-70
2023/08/22 11:00:19;;;;;;;0.17;0.17;;;23.00;99.90;;;;;;5027968;28;20408;-69
2023/08/22 11:02:48;;;;;;;0.20;0.20;;;22.90;99.90;;;;;;5026411;28;20513;-69
2023/08/22 11:05:15;;;;;;;4.65;1.65;;;22.80;99.90;;;;;;5037134;28;20037;-69
2023/08/22 11:07:54;;;;;;;0.38;0.35;;;22.90;99.90;;;;;;5036872;28;20132;-69
2023/08/22 11:10:22;;;;;;;0.10;0.10;;;23.20;99.90;;;;;;5034880;28;20104;-69
2023/08/22 11:12:49;;;;;;;0.00;0.00;;;23.40;99.90;;;;;;5033891;28;20020;-69
2023/08/22 11:15:18;;;;;;;0.13;0.13;;;23.60;99.90;;;;;;5033296;28;20088;-70
2023/08/22 11:17:46;;;;;;;2.42;1.20;;;23.70;99.90;;;;;;5033354;28;20089;-68
2023/08/22 11:20:18;;;;;;;0.00;0.00;;;23.80;99.90;;;;;;5039374;28;20416;-69
2023/08/22 11:22:44;;;;;;;0.00;0.00;;;23.80;99.90;;;;;;5038126;28;20439;-69
2023/08/22 11:25:11;;;;;;;;;;;23.80;99.90;;;;;;5023311;28;20373;-69
2023/08/22 11:27:38;;;;;;;0.00;0.00;;;23.80;99.90;;;;;;5032674;28;20255;-70
2023/08/22 11:30:05;;;;;;;0.00;0.00;;;23.70;99.90;;;;;;5034366;28;20018;-69
2023/08/22 11:32:32;;;;;;;0.00;0.00;;;23.70;99.90;;;;;;5026474;28;20363;-70
2023/08/22 11:35:04;;;;;;;0.00;0.00;;;23.60;99.90;;;;;;5034450;28;20443;-68
2023/08/22 11:37:31;;;;;;;0.10;0.10;;;23.50;99.90;;;;;;5035009;28;20067;-69
2023/08/22 11:39:58;;;;;;;0.52;0.28;;;23.50;99.90;;;;;;5029243;28;20037;-69
2023/08/22 11:42:24;;;;;;;0.00;0.00;;;23.50;99.90;;;;;;5034384;28;20036;-70
2023/08/22 11:45:13;;;;;;;0.00;0.00;;;23.40;99.90;;;;;;5049429;28;20021;-69
2023/08/22 11:47:42;;;;;;;0.22;0.22;;;23.30;99.90;;;;;;5030622;28;20077;-76
2023/08/22 11:50:29;;;;;;;0.25;0.25;;;23.20;99.90;;;;;;5032675;28;20108;-68
2023/08/22 11:53:10;;;;;;;0.32;0.15;;;23.30;99.90;;;;;;5030837;28;20026;-68
2023/08/22 11:55:40;;;;;;;0.10;0.10;;;23.10;99.90;;;;;;5029693;28;20064;-69
2023/08/22 11:58:09;;;;;;;0.00;0.00;;;23.00;99.90;;;;;;5030393;28;20071;-69
2023/08/22 12:00:35;;;;;;;0.28;0.28;;;22.90;99.90;;;;;;5036196;28;20056;-70
2023/08/22 12:03:05;;;;;;;1.50;1.00;;;22.90;99.90;;;;;;5033815;28;20059;-69
2023/08/22 12:05:48;;;;;;;0.05;0.05;;;23.20;99.90;;;;;;5035529;28;20025;-69
2023/08/22 12:08:14;;;;;;;0.40;0.40;;;23.50;99.90;;;;;;5035507;28;20075;-70
2023/08/22 12:10:47;;;;;;;0.00;0.00;;;23.80;99.90;;;;;;5034407;28;20018;-69
2023/08/22 12:13:18;;;;;;;0.40;0.40;;;24.00;99.90;;;;;;5030048;28;20017;-72
2023/08/22 12:15:44;;;;;;;0.25;0.25;;;24.20;99.90;;;;;;5027599;28;20040;-70
2023/08/22 12:18:11;;;;;;;0.10;0.10;;;24.40;99.90;;;;;;5035273;28;20071;-69
2023/08/22 12:20:39;;;;;;;2.88;0.75;;;24.60;99.90;;;;;;5033774;28;20034;-75
2023/08/22 12:23:06;;;;;;;0.20;0.20;;;24.60;99.90;;;;;;5030218;28;20033;-69
2023/08/22 12:25:34;;;;;;;0.00;0.00;;;24.70;99.90;;;;;;5032275;28;20025;-69
2023/08/22 12:28:03;;;;;;;0.03;0.03;;;24.80;99.90;;;;;;5035274;28;20030;-70
2023/08/22 12:30:33;;;;;;;0.55;0.52;;;24.70;99.90;;;;;;5034910;28;20018;-70
2023/08/22 12:33:05;;;;;;;0.10;0.10;;;24.80;99.90;;;;;;5026830;28;20030;-69
2023/08/22 12:35:35;;;;;;;0.10;0.10;;;24.80;99.90;;;;;;5026048;28;20060;-69
2023/08/22 12:38:02;;;;;;;0.65;0.55;;;24.90;99.90;;;;;;5031337;28;20017;-69
2023/08/22 12:40:28;;;;;;;0.35;0.30;;;25.00;99.90;;;;;;5023763;28;20092;-69
2023/08/22 12:42:55;;;;;;;0.90;0.60;;;24.80;99.90;;;;;;5031974;28;20303;-70
2023/08/22 12:45:22;;;;;;;1.08;0.90;;;24.90;99.90;;;;;;5033527;28;20025;-70
2023/08/22 12:47:51;;;;;;;0.00;0.00;;;24.90;99.90;;;;;;5032122;28;20045;-70
2023/08/22 12:50:17;;;;;;;0.35;0.35;;;24.90;99.90;;;;;;5027414;28;20547;-70
2023/08/22 12:52:43;;;;;;;0.40;0.40;;;25.00;99.90;;;;;;5028631;28;20022;-70